createdAt,value
2022-10-14T00:04:26.091Z,8.26
2022-10-14T00:09:29.327Z,8.23
2022-10-14T00:14:32.574Z,8.21
2022-10-14T00:19:36.676Z,8.16
2022-10-14T00:24:40.270Z,8.17
2022-10-14T00:29:43.549Z,8.18
2022-10-14T00:34:46.804Z,8.21
2022-10-14T00:39:53.480Z,8.24
2022-10-14T00:45:14.311Z,8.26
2022-10-14T00:50:20.082Z,8.29
2022-10-14T00:55:23.627Z,8.30
2022-10-14T01:00:27.213Z,8.29
2022-10-14T01:05:34.104Z,8.23
2022-10-14T01:10:43.505Z,8.13
2022-10-14T01:16:09.900Z,8.04
2022-10-14T01:21:21.253Z,7.95
2022-10-14T01:26:56.341Z,7.87
2022-10-14T01:32:07.568Z,7.82
2022-10-14T01:37:15.846Z,7.75
2022-10-14T01:42:23.935Z,7.67
2022-10-14T01:47:30.725Z,7.60
2022-10-14T01:52:46.708Z,7.53
2022-10-14T01:57:52.119Z,7.44
2022-10-14T02:02:55.903Z,7.43
2022-10-14T02:08:08.811Z,7.41
2022-10-14T02:13:47.341Z,7.37
2022-10-14T02:19:09.937Z,7.28
2022-10-14T02:24:13.087Z,7.21
2022-10-14T02:29:19.783Z,7.19
2022-10-14T02:34:24.614Z,7.22
2022-10-14T02:39:35.915Z,7.30
2022-10-14T02:44:53.453Z,7.35
2022-10-14T02:49:56.854Z,7.40
2022-10-14T02:55:00.710Z,7.46
2022-10-14T03:00:06.187Z,7.54
2022-10-14T03:05:10.363Z,7.62
2022-10-14T03:10:13.742Z,7.68
2022-10-14T03:15:17.160Z,7.71
2022-10-14T03:20:20.615Z,7.70
2022-10-14T03:25:28.329Z,7.68
2022-10-14T03:30:45.418Z,7.65
2022-10-14T03:35:52.713Z,7.62
2022-10-14T03:41:00.748Z,7.56
2022-10-14T03:46:04.992Z,7.50
2022-10-14T03:51:09.069Z,7.45
2022-10-14T03:56:12.824Z,7.38
2022-10-14T04:01:17.472Z,7.38
2022-10-14T04:06:39.373Z,7.38
2022-10-14T04:11:43.168Z,7.38
2022-10-14T04:16:51.863Z,7.35
2022-10-14T04:21:55.979Z,7.33
2022-10-14T04:27:03.996Z,7.30
2022-10-14T04:32:30.229Z,7.26
2022-10-14T04:37:33.722Z,7.21
2022-10-14T04:42:42.736Z,7.24
2022-10-14T04:47:54.058Z,7.25
2022-10-14T04:53:02.124Z,7.25
2022-10-14T04:58:05.418Z,7.27
2022-10-14T05:03:13.661Z,7.32
2022-10-14T05:08:23.415Z,7.36
2022-10-14T05:13:31.071Z,7.40
2022-10-14T05:18:40.492Z,7.46
2022-10-14T05:23:51.373Z,7.52
2022-10-14T05:28:54.970Z,7.59
2022-10-14T05:33:58.598Z,7.66
2022-10-14T05:39:02.855Z,7.75
2022-10-14T05:44:11.753Z,7.87
2022-10-14T05:49:15.314Z,7.97
2022-10-14T05:54:19.353Z,8.06
2022-10-14T05:59:24.039Z,8.16
2022-10-14T06:04:29.163Z,8.28
2022-10-14T06:09:39.990Z,8.40
2022-10-14T06:14:49.653Z,8.54
2022-10-14T06:20:07.552Z,8.69
2022-10-14T06:25:11.120Z,8.82
2022-10-14T06:30:14.829Z,8.94
2022-10-14T06:35:21.365Z,9.10
2022-10-14T06:40:24.800Z,9.27
2022-10-14T06:45:28.047Z,9.42
2022-10-14T06:50:31.334Z,9.56
2022-10-14T06:55:35.107Z,9.71
2022-10-14T07:00:43.239Z,9.83
2022-10-14T07:05:51.950Z,9.94
2022-10-14T07:10:58.145Z,10.08
2022-10-14T07:16:07.505Z,10.22
2022-10-14T07:21:10.876Z,10.35
2022-10-14T07:26:17.245Z,10.56
2022-10-14T07:31:26.590Z,10.87
2022-10-14T07:36:32.724Z,11.12
2022-10-14T07:41:38.223Z,11.47
2022-10-14T07:46:44.864Z,11.87
2022-10-14T07:51:49.356Z,12.29
2022-10-14T07:56:53.886Z,12.81
2022-10-14T08:01:57.611Z,13.31
2022-10-14T08:07:01.581Z,13.66
2022-10-14T08:12:06.260Z,13.91
2022-10-14T08:17:10.209Z,14.06
2022-10-14T08:22:16.932Z,14.27
2022-10-14T08:27:20.151Z,14.48
2022-10-14T08:32:24.857Z,14.75
2022-10-14T08:37:29.687Z,15.04
2022-10-14T08:42:46.340Z,15.37
2022-10-14T08:47:54.070Z,15.59
2022-10-14T08:53:09.974Z,15.95
2022-10-14T08:58:19.724Z,16.29
2022-10-14T09:03:35.231Z,16.52
2022-10-14T09:08:45.160Z,16.74
2022-10-14T09:13:56.710Z,16.94
2022-10-14T09:19:02.794Z,17.00
2022-10-14T09:24:21.653Z,17.07
2022-10-14T09:29:28.987Z,17.09
2022-10-14T09:34:38.875Z,17.27
2022-10-14T09:39:46.007Z,17.52
2022-10-14T09:45:13.563Z,17.66
2022-10-14T09:50:52.203Z,17.66
2022-10-14T09:55:58.831Z,17.84
2022-10-14T10:01:06.368Z,18.01
2022-10-14T10:06:15.216Z,18.03
2022-10-14T10:11:39.978Z,18.03
2022-10-14T10:16:43.286Z,18.01
2022-10-14T10:21:48.794Z,17.85
2022-10-14T10:26:52.477Z,17.66
2022-10-14T10:32:06.880Z,17.65
2022-10-14T10:43:43.489Z,17.83
2022-10-14T10:49:08.814Z,17.95
2022-10-14T10:54:27.331Z,18.17
2022-10-14T10:59:59.810Z,18.37
2022-10-14T11:05:23.719Z,18.62
2022-10-14T11:11:08.366Z,18.88
2022-10-14T11:16:30.001Z,19.00
2022-10-14T11:21:44.749Z,19.08
2022-10-14T11:27:09.427Z,18.96
2022-10-14T11:32:33.983Z,18.98
2022-10-14T11:37:58.606Z,19.24
2022-10-14T11:43:13.933Z,19.53
2022-10-14T11:48:50.867Z,19.69
2022-10-14T11:54:08.585Z,19.73
2022-10-14T11:59:40.629Z,19.70
2022-10-14T12:04:48.373Z,20.04
2022-10-14T12:09:59.080Z,20.42
2022-10-14T12:15:08.056Z,20.54
2022-10-14T12:20:49.637Z,20.58
2022-10-14T12:26:20.053Z,20.52
2022-10-14T12:31:28.150Z,20.49
2022-10-14T12:36:32.368Z,20.43
2022-10-14T12:41:41.308Z,20.33
2022-10-14T12:46:49.984Z,20.24
2022-10-14T12:51:55.644Z,20.25
2022-10-14T12:57:26.277Z,20.29
2022-10-14T13:02:48.810Z,20.26
2022-10-14T13:08:17.247Z,20.27
2022-10-14T13:13:38.695Z,20.34
2022-10-14T13:18:44.982Z,20.41
2022-10-14T13:23:50.512Z,20.50
2022-10-14T13:29:03.066Z,20.67
2022-10-14T13:34:44.106Z,20.71
2022-10-14T13:39:47.474Z,20.42
2022-10-14T13:45:01.867Z,20.10
2022-10-14T13:50:05.783Z,19.95
2022-10-14T13:55:21.290Z,19.95
2022-10-14T14:00:42.049Z,20.00
2022-10-14T14:05:47.911Z,20.12
2022-10-14T14:11:15.691Z,20.22
2022-10-14T14:16:22.952Z,20.21
2022-10-14T14:21:27.931Z,20.05
2022-10-14T14:26:38.866Z,19.81
2022-10-14T14:37:34.290Z,19.33
2022-10-14T14:42:37.322Z,19.12
2022-10-14T14:47:42.182Z,18.94
2022-10-14T14:52:48.200Z,18.77
2022-10-14T14:57:59.529Z,18.66
2022-10-14T15:03:04.042Z,18.63
2022-10-14T15:08:25.746Z,18.57
2022-10-14T15:13:43.634Z,18.45
2022-10-14T15:19:02.377Z,18.17
2022-10-14T15:24:16.379Z,17.87
2022-10-14T15:29:28.087Z,17.62
2022-10-14T15:34:31.701Z,17.41
2022-10-14T15:39:35.614Z,17.19
2022-10-14T15:44:39.083Z,16.95
2022-10-14T15:49:46.688Z,16.71
2022-10-14T15:54:53.873Z,16.42
2022-10-14T15:59:59.353Z,16.10
2022-10-14T16:05:19.414Z,15.76
2022-10-14T16:10:34.815Z,15.40
2022-10-14T16:15:56.302Z,15.02
2022-10-14T16:21:03.052Z,14.64
2022-10-14T16:26:09.191Z,14.33
2022-10-14T16:31:14.750Z,14.07
2022-10-14T16:36:32.116Z,13.80
2022-10-14T16:41:36.730Z,13.55
2022-10-14T16:47:24.381Z,13.28
2022-10-14T16:53:02.252Z,12.95
2022-10-14T16:58:25.392Z,12.64
2022-10-14T17:03:31.819Z,12.47
2022-10-14T17:08:41.386Z,12.39
2022-10-14T17:13:54.072Z,12.30
2022-10-14T17:19:00.953Z,12.20
2022-10-14T17:24:05.407Z,12.06
2022-10-14T17:29:15.634Z,11.93
2022-10-14T17:34:35.090Z,11.75
2022-10-14T17:39:42.292Z,11.60
2022-10-14T17:44:46.625Z,11.46
2022-10-14T17:49:51.028Z,11.30
2022-10-14T17:55:01.429Z,11.14
2022-10-14T18:00:17.752Z,11.02
2022-10-14T18:05:21.119Z,10.93
2022-10-14T18:10:26.597Z,10.86
2022-10-14T18:15:31.496Z,10.75
2022-10-14T18:20:41.483Z,10.66
2022-10-14T18:25:45.801Z,10.58
2022-10-14T18:30:49.234Z,10.52
2022-10-14T18:36:01.330Z,10.46
2022-10-14T18:41:10.746Z,10.38
2022-10-14T18:46:21.827Z,10.35
2022-10-14T18:51:28.469Z,10.34
2022-10-14T18:56:37.604Z,10.27
2022-10-14T19:01:44.363Z,10.17
2022-10-14T19:06:50.762Z,10.09
2022-10-14T19:12:03.420Z,10.04
2022-10-14T19:17:09.960Z,9.98
2022-10-14T19:22:17.858Z,9.90
2022-10-14T19:27:21.962Z,9.81
2022-10-14T19:32:27.252Z,9.71
2022-10-14T19:37:45.572Z,9.62
2022-10-14T19:42:49.921Z,9.52
2022-10-14T19:47:56.972Z,9.44
2022-10-14T19:53:07.174Z,9.40
2022-10-14T19:58:27.995Z,9.37
2022-10-14T20:03:51.718Z,9.33
2022-10-14T20:09:08.328Z,9.27
2022-10-14T20:14:16.530Z,9.21
2022-10-14T20:19:22.160Z,9.18
2022-10-14T20:24:26.299Z,9.17
2022-10-14T20:29:36.138Z,9.16
2022-10-14T20:34:42.212Z,9.12
2022-10-14T20:39:49.977Z,9.11
2022-10-14T20:44:54.238Z,9.11
2022-10-14T20:50:01.300Z,9.05
2022-10-14T20:55:07.696Z,9.02
2022-10-14T21:00:21.862Z,8.99
2022-10-14T21:05:31.558Z,8.99
2022-10-14T21:10:40.939Z,8.98
2022-10-14T21:15:56.031Z,8.99
2022-10-14T21:21:05.398Z,8.98
2022-10-14T21:26:14.096Z,8.98
2022-10-14T21:31:21.125Z,8.96
2022-10-14T21:36:25.514Z,9.00
2022-10-14T21:41:30.828Z,9.03
2022-10-14T21:46:45.180Z,9.09
2022-10-14T21:52:00.465Z,9.14
2022-10-14T21:57:15.407Z,9.27
2022-10-14T22:02:19.505Z,9.39
2022-10-14T22:07:25.574Z,9.49
2022-10-14T22:12:31.537Z,9.59
2022-10-14T22:17:36.731Z,9.70
2022-10-14T22:22:47.172Z,9.77
2022-10-14T22:27:55.631Z,9.80
2022-10-14T22:33:03.225Z,9.82
2022-10-14T22:38:35.772Z,9.85
2022-10-14T22:43:54.296Z,9.87
2022-10-14T22:49:04.191Z,9.92
2022-10-14T22:54:18.066Z,9.96
2022-10-14T22:59:25.933Z,9.97
2022-10-14T23:04:32.533Z,9.96
2022-10-14T23:09:36.573Z,9.98
2022-10-14T23:14:40.482Z,9.98
2022-10-14T23:19:44.295Z,9.98
2022-10-14T23:24:48.171Z,9.95
2022-10-14T23:29:53.285Z,9.89
2022-10-14T23:34:57.414Z,9.85
2022-10-14T23:40:02.013Z,9.84
2022-10-14T23:45:06.023Z,9.88
2022-10-14T23:50:09.394Z,9.93
2022-10-14T23:55:13.476Z,10.03
